Lemnos, Victoria

8:46 PM AEST on May 06, 2015 (GMT +1000)
Wunghnu Chester | | Change Station
CLOSE
Current Station
Personal Weather Station
Location: Wunghnu, VICTORIA
Elevation: 369 ft
Nearby Weather Stations

Elev 369 ft 36.15 °S, 145.43 °E | Updated 50 seconds ago

Rain
Rain
52.1 °F
Feels Like 52.1 °F
N
0.0
Wind Variable Wind from NW
Gusts 0.0 mph

Today
High -- | Low -- °F
--% Chance of Precip.
Yesterday
High -- | Low -- °F
Precip. -- in
7:00 AM 5:28 PM
Waning Gibbous, 94% visible
Pressure 30.04 in
Visibility -9999.0 miles
Clouds
Dew Point 51 °F
Humidity 95%
Rainfall 0.04 in
Snow Depth Not available.
UV Not available.
Pollen Not available.
Air Quality Not available.
Flu Activity Not available.
METAR YWGT 061000Z AUTO 33008KT //// // ////// 13/08 Q1017

More Conditions Fewer Conditions

Pressure 30.04 in
Visibility -9999.0 miles
Clouds
Dew Point 51 °F
Humidity 95%
Rainfall 0.04 in
Snow Depth Not available.
UV Not available.
Pollen Not available.
Air Quality Not available.
Flu Activity Not available.
METAR YWGT 061000Z AUTO 33008KT //// // ////// 13/08 Q1017

More Conditions Fewer Conditions

10-Day Weather Forecast

Almanac

Astronomy

May. 06, 2015 Rise Set
Actual Time
Civil Twilight
Nautical Twilight
Astronomical Twilight
Moon
Length of Visible Light
Length of Day
Tomorrow will be .
, % of the Moon is Illuminated

Today's Extremes

Country Highs Country Lows

Community

WunderPhotos

Upload Photos

1,818,859 photos uploaded!

WunderBlogs® & News

Nearby

Air Quality

  Air Quality AQ Index Pollutant
Not available.

Snow Depth

Station Depth Elevation

Earthquake Activity

City Distance Mag. Time & Date
Minimum magnitude displayed is 2.5.

Coastal Water Temperatures

Place Temperature

Stations

Nearby Weather Stations

Station Location Temp. Windchill Dew Point Humidity Wind Precip. Elev Updated Type